KSAC/SAC METAR and TAF weather

Enter ICAO airport designator
Station Type Date Time Source
KSAC METAR 2019/02/16 17:53 UTC NOAA

KSAC 161753Z 23012KT 10SM BKN100 09/04 A3015 RMK AO2 SLP209 T00890044 10094 20061 51012


Station Type Date Time Source
KSAC Decoded METAR 2019/02/16 17:53 UTC NOAA

SACRAMENTO EXECUTIVE AIRPORT , CA, United States (KSAC) 38-30N 121-30W 11M
Feb 16, 2019 - 12:53 PM EST / 2019.02.16 1753 UTC
Wind: from the SW (230 degrees) at 14 MPH (12 KT):0
Visibility: 10 mile(s):0
Sky conditions: mostly cloudy
Temperature: 48.0 F (8.9 C)
Dew Point: 39.9 F (4.4 C)
Relative Humidity: 73%
Pressure (altimeter): 30.15 in. Hg (1020 hPa)
Pressure tendency: 0.04 inches (1.2 hPa) higher than three hours ago
ob: KSAC 161753Z 23012KT 10SM BKN100 09/04 A3015 RMK AO2 SLP209 T00890044 10094 20061 51012
cycle: 18

Station Type Date Time Source
KSAC TAF 2019/02/16 18:42 UTC NOAA

TAF KSAC 161741Z 1618/1718 20010KT P6SM VCSH BKN090
TEMPO 1621/1701 6SM -SHRA OVC050
FM170100 22010KT P6SM BKN100


Example: see airport list